createdAt,value
2022-08-23T00:00:13.509Z,20.74
2022-08-23T00:02:43.563Z,20.71
2022-08-23T00:05:13.216Z,20.68
2022-08-23T00:07:44.263Z,20.63
2022-08-23T00:10:17.208Z,20.61
2022-08-23T00:12:46.728Z,20.57
2022-08-23T00:15:17.863Z,20.55
2022-08-23T00:17:46.396Z,20.51
2022-08-23T00:20:20.709Z,20.46
2022-08-23T00:22:49.264Z,20.41
2022-08-23T00:25:19.061Z,20.40
2022-08-23T00:27:47.427Z,20.37
2022-08-23T00:30:17.683Z,20.34
2022-08-23T00:32:46.812Z,20.28
2022-08-23T00:35:20.874Z,20.26
2022-08-23T00:38:32.960Z,20.21
2022-08-23T00:40:50.984Z,20.14
2022-08-23T00:43:41.341Z,20.10
2022-08-23T00:46:37.846Z,20.06
2022-08-23T00:49:10.378Z,20.01
2022-08-23T00:51:52.114Z,19.96
2022-08-23T00:54:23.194Z,19.91
2022-08-23T00:56:53.484Z,19.87
2022-08-23T00:59:21.988Z,19.82
2022-08-23T01:01:50.873Z,19.79
2022-08-23T01:04:19.907Z,19.75
2022-08-23T01:06:55.146Z,19.72
2022-08-23T01:09:23.924Z,19.68
2022-08-23T01:11:57.610Z,19.66
2022-08-23T01:14:31.442Z,19.62
2022-08-23T01:17:05.537Z,19.58
2022-08-23T01:19:37.542Z,19.55
2022-08-23T01:22:13.467Z,19.50
2022-08-23T01:25:07.721Z,19.46
2022-08-23T01:27:35.593Z,19.41
2022-08-23T01:30:06.161Z,19.36
2022-08-23T01:32:40.554Z,19.32
2022-08-23T01:35:09.767Z,19.27
2022-08-23T01:37:38.849Z,19.24
2022-08-23T01:40:10.082Z,19.21
2022-08-23T01:42:41.546Z,19.17
2022-08-23T01:45:13.250Z,19.16
2022-08-23T01:47:42.100Z,19.12
2022-08-23T01:50:13.057Z,19.08
2022-08-23T01:52:47.293Z,19.06
2022-08-23T01:55:19.423Z,19.03
2022-08-23T01:57:51.650Z,18.99
2022-08-23T02:00:22.519Z,18.95
2022-08-23T02:02:51.226Z,18.92
2022-08-23T02:05:20.462Z,18.88
2022-08-23T02:07:49.449Z,18.84
2022-08-23T02:10:21.176Z,18.80
2022-08-23T02:12:51.354Z,18.78
2022-08-23T02:15:22.016Z,18.72
2022-08-23T02:17:50.472Z,18.70
2022-08-23T02:20:19.346Z,18.66
2022-08-23T02:22:47.752Z,18.64
2022-08-23T02:25:16.089Z,18.62
2022-08-23T02:27:45.770Z,18.59
2022-08-23T02:30:15.272Z,18.54
2022-08-23T02:32:44.332Z,18.52
2022-08-23T02:35:13.890Z,18.49
2022-08-23T02:37:42.273Z,18.46
2022-08-23T02:40:11.996Z,18.42
2022-08-23T02:42:40.442Z,18.39
2022-08-23T02:45:11.360Z,18.36
2022-08-23T02:47:46.768Z,18.32
2022-08-23T02:50:27.513Z,18.31
2022-08-23T02:52:56.031Z,18.27
2022-08-23T02:55:24.695Z,18.25
2022-08-23T02:57:53.534Z,18.24
2022-08-23T03:00:23.936Z,18.21
2022-08-23T03:02:52.292Z,18.20
2022-08-23T03:05:21.321Z,18.17
2022-08-23T03:07:49.763Z,18.15
2022-08-23T03:10:18.177Z,18.14
2022-08-23T03:12:55.467Z,18.11
2022-08-23T03:15:25.219Z,18.10
2022-08-23T03:17:53.700Z,18.08
2022-08-23T03:20:22.430Z,18.08
2022-08-23T03:22:54.562Z,18.05
2022-08-23T03:25:24.728Z,18.03
2022-08-23T03:28:05.523Z,18.00
2022-08-23T03:30:37.322Z,17.96
2022-08-23T03:33:07.102Z,17.95
2022-08-23T03:35:35.743Z,17.93
2022-08-23T03:38:06.035Z,17.89
2022-08-23T03:40:36.435Z,17.88
2022-08-23T03:43:05.055Z,17.86
2022-08-23T03:45:35.862Z,17.84
2022-08-23T03:48:04.810Z,17.81
2022-08-23T03:50:36.058Z,17.78
2022-08-23T03:53:05.002Z,17.77
2022-08-23T03:55:33.535Z,17.73
2022-08-23T03:58:11.158Z,17.69
2022-08-23T04:00:41.042Z,17.67
2022-08-23T04:03:09.892Z,17.65
2022-08-23T04:05:54.821Z,17.61
2022-08-23T04:08:29.718Z,17.60
2022-08-23T04:11:02.632Z,17.58
2022-08-23T04:13:31.571Z,17.56
2022-08-23T04:16:05.053Z,17.52
2022-08-23T04:18:34.886Z,17.51
2022-08-23T04:21:07.286Z,17.48
2022-08-23T04:23:35.802Z,17.44
2022-08-23T04:26:06.174Z,17.41
2022-08-23T04:28:38.875Z,17.38
2022-08-23T04:31:09.067Z,17.37
2022-08-23T04:33:40.320Z,17.34
2022-08-23T04:36:10.699Z,17.31
2022-08-23T04:38:39.202Z,17.29
2022-08-23T04:41:26.517Z,17.27
2022-08-23T04:43:57.282Z,17.24
2022-08-23T04:46:28.484Z,17.24
2022-08-23T04:48:59.633Z,17.22
2022-08-23T04:51:29.292Z,17.19
2022-08-23T04:53:57.876Z,17.18
2022-08-23T04:56:38.742Z,17.14
2022-08-23T04:59:08.537Z,17.12
2022-08-23T05:01:44.070Z,17.11
2022-08-23T05:04:12.614Z,17.10
2022-08-23T05:06:42.073Z,17.08
2022-08-23T05:09:11.238Z,17.08
2022-08-23T05:11:39.722Z,17.08
2022-08-23T05:14:08.515Z,17.07
2022-08-23T05:16:37.432Z,17.06
2022-08-23T05:19:12.198Z,17.06
2022-08-23T05:21:45.412Z,17.06
2022-08-23T05:24:14.130Z,17.07
2022-08-23T05:26:44.473Z,17.06
2022-08-23T05:29:13.181Z,17.07
2022-08-23T05:31:46.883Z,17.08
2022-08-23T05:34:22.432Z,17.09
2022-08-23T05:36:55.738Z,17.12
2022-08-23T05:39:35.959Z,17.12
2022-08-23T05:42:07.188Z,17.14
2022-08-23T05:44:36.690Z,17.16
2022-08-23T05:47:11.135Z,17.18
2022-08-23T05:49:47.366Z,17.21
2022-08-23T05:52:16.126Z,17.22
2022-08-23T05:54:45.578Z,17.26
2022-08-23T05:57:35.459Z,17.30
2022-08-23T06:00:05.550Z,17.34
2022-08-23T06:02:34.097Z,17.38
2022-08-23T06:05:04.245Z,17.41
2022-08-23T06:07:34.589Z,17.46
2022-08-23T06:10:03.149Z,17.51
2022-08-23T06:12:33.625Z,17.57
2022-08-23T06:15:03.314Z,17.62
2022-08-23T06:17:31.926Z,17.67
2022-08-23T06:20:01.092Z,17.73
2022-08-23T06:22:39.509Z,17.81
2022-08-23T06:25:09.789Z,17.88
2022-08-23T06:27:53.981Z,17.95
2022-08-23T06:30:22.474Z,18.03
2022-08-23T06:33:02.799Z,18.12
2022-08-23T06:35:38.794Z,18.19
2022-08-23T06:38:14.915Z,18.29
2022-08-23T06:40:52.661Z,18.39
2022-08-23T06:43:26.850Z,18.48
2022-08-23T06:46:17.442Z,18.58
2022-08-23T06:48:47.179Z,18.66
2022-08-23T06:51:22.061Z,18.77
2022-08-23T06:54:13.316Z,18.88
2022-08-23T06:56:56.942Z,18.97
2022-08-23T06:59:34.917Z,19.07
2022-08-23T07:02:35.887Z,19.16
2022-08-23T07:05:45.054Z,19.29
2022-08-23T07:08:25.100Z,19.41
2022-08-23T07:10:56.808Z,19.52
2022-08-23T07:13:25.248Z,19.63
2022-08-23T07:15:59.074Z,19.70
2022-08-23T07:18:27.944Z,19.80
2022-08-23T07:20:58.561Z,19.89
2022-08-23T07:23:27.487Z,19.96
2022-08-23T07:25:58.932Z,20.07
2022-08-23T07:28:31.781Z,20.17
2022-08-23T07:31:11.402Z,20.25
2022-08-23T07:33:44.602Z,20.35
2022-08-23T07:36:19.582Z,20.44
2022-08-23T07:38:49.195Z,20.53
2022-08-23T07:41:21.927Z,20.61
2022-08-23T07:43:50.902Z,20.70
2022-08-23T07:46:20.997Z,20.78
2022-08-23T07:48:54.602Z,20.86
2022-08-23T07:51:32.263Z,20.96
2022-08-23T07:54:02.537Z,21.01
2022-08-23T07:56:32.332Z,21.07
2022-08-23T07:59:11.387Z,21.14
2022-08-23T08:01:53.554Z,21.20
2022-08-23T08:04:23.633Z,21.24
2022-08-23T08:07:10.840Z,21.29
2022-08-23T08:09:45.138Z,21.36
2022-08-23T08:12:15.069Z,21.42
2022-08-23T08:14:44.603Z,21.48
2022-08-23T08:17:15.561Z,21.56
2022-08-23T08:20:02.161Z,21.64
2022-08-23T08:22:53.755Z,21.72
2022-08-23T08:25:36.829Z,21.79
2022-08-23T08:28:15.579Z,21.87
2022-08-23T08:30:44.589Z,21.91
2022-08-23T08:33:13.310Z,21.97
2022-08-23T08:35:41.760Z,22.03
2022-08-23T08:38:10.348Z,22.09
2022-08-23T08:40:41.396Z,22.15
2022-08-23T08:43:29.463Z,22.22
2022-08-23T08:46:06.258Z,22.32
2022-08-23T08:48:43.003Z,22.38
2022-08-23T08:51:25.662Z,22.45
2022-08-23T08:53:55.687Z,22.53
2022-08-23T08:56:35.201Z,22.60
2022-08-23T08:59:31.974Z,22.68
2022-08-23T09:02:00.566Z,22.75
2022-08-23T09:04:37.261Z,22.81
2022-08-23T09:07:15.952Z,22.86
2022-08-23T09:10:07.076Z,22.93
2022-08-23T09:12:50.359Z,23.01
2022-08-23T09:15:30.849Z,23.07
2022-08-23T09:18:04.863Z,23.15
2022-08-23T09:20:35.343Z,23.22
2022-08-23T09:23:09.712Z,23.30
2022-08-23T09:25:40.290Z,23.38
2022-08-23T09:28:16.874Z,23.44
2022-08-23T09:30:54.727Z,23.51
2022-08-23T09:33:27.239Z,23.59
2022-08-23T09:36:08.433Z,23.67
2022-08-23T09:38:41.677Z,23.74
2022-08-23T09:41:19.312Z,23.82
2022-08-23T09:43:52.345Z,23.90
2022-08-23T09:46:28.766Z,23.99
2022-08-23T09:48:58.868Z,24.07
2022-08-23T09:51:35.986Z,24.13
2022-08-23T09:54:18.615Z,24.22
2022-08-23T09:56:53.674Z,24.30
2022-08-23T09:59:34.092Z,24.38
2022-08-23T10:02:17.407Z,24.45
2022-08-23T10:04:58.864Z,24.52
2022-08-23T10:07:36.322Z,24.61
2022-08-23T10:10:24.636Z,24.70
2022-08-23T10:12:56.560Z,24.80
2022-08-23T10:15:37.871Z,24.89
2022-08-23T10:18:15.870Z,24.98
2022-08-23T10:20:54.494Z,25.07
2022-08-23T10:23:38.110Z,25.13
2022-08-23T10:26:11.864Z,25.21
2022-08-23T10:29:05.731Z,25.28
2022-08-23T10:31:43.507Z,25.38
2022-08-23T10:34:39.638Z,25.52
2022-08-23T10:37:23.525Z,25.61
2022-08-23T10:40:03.948Z,25.70
2022-08-23T10:42:43.725Z,25.77
2022-08-23T10:45:20.051Z,25.86
2022-08-23T10:48:02.258Z,25.94
2022-08-23T10:50:43.579Z,26.01
2022-08-23T10:53:16.390Z,26.09
2022-08-23T10:56:03.003Z,26.19
2022-08-23T10:58:41.437Z,26.30
2022-08-23T11:01:14.180Z,26.38
2022-08-23T11:03:45.895Z,26.50
2022-08-23T11:06:46.560Z,26.64
2022-08-23T11:09:53.457Z,26.74
2022-08-23T11:12:29.064Z,26.83
2022-08-23T11:15:05.927Z,26.95
2022-08-23T11:17:42.282Z,27.02
2022-08-23T11:20:13.205Z,27.11
2022-08-23T11:23:15.610Z,27.20
2022-08-23T11:25:46.304Z,27.29
2022-08-23T11:28:41.903Z,27.41
2022-08-23T11:31:25.488Z,27.50
2022-08-23T11:34:02.181Z,27.58
2022-08-23T11:36:33.544Z,27.67
2022-08-23T11:39:13.193Z,27.78
2022-08-23T11:42:05.349Z,27.85
2022-08-23T11:44:42.031Z,27.96
2022-08-23T11:47:13.741Z,28.09
2022-08-23T11:49:57.918Z,28.21
2022-08-23T11:52:57.103Z,28.31
2022-08-23T11:55:52.471Z,28.42
2022-08-23T11:58:24.602Z,28.49
2022-08-23T12:01:08.417Z,28.56
2022-08-23T12:03:53.788Z,28.68
2022-08-23T12:06:51.230Z,28.81
2022-08-23T12:09:51.620Z,28.92
2022-08-23T12:12:40.049Z,29.02
2022-08-23T12:15:13.159Z,29.12
2022-08-23T12:18:11.941Z,29.24
2022-08-23T12:20:42.400Z,29.35
2022-08-23T12:23:21.783Z,29.48
2022-08-23T12:26:08.724Z,29.57
2022-08-23T12:28:44.796Z,29.63
2022-08-23T12:31:33.244Z,29.72
2022-08-23T12:34:21.997Z,29.86
2022-08-23T12:37:05.440Z,29.97
2022-08-23T12:39:40.664Z,30.04
2022-08-23T12:42:15.658Z,30.13
2022-08-23T12:44:47.489Z,30.20
2022-08-23T12:47:18.318Z,30.22
2022-08-23T12:49:57.119Z,30.14
2022-08-23T12:52:28.523Z,30.13
2022-08-23T12:54:58.046Z,30.23
2022-08-23T12:57:35.616Z,30.34
2022-08-23T13:00:18.963Z,30.51
2022-08-23T13:02:53.416Z,30.65
2022-08-23T13:05:31.442Z,30.70
2022-08-23T13:08:01.129Z,30.81
2022-08-23T13:10:29.793Z,30.93
2022-08-23T13:12:58.734Z,31.03
2022-08-23T13:15:51.569Z,31.13
2022-08-23T13:18:33.399Z,31.21
2022-08-23T13:21:19.371Z,31.33
2022-08-23T13:23:48.197Z,31.43
2022-08-23T13:26:36.785Z,31.37
2022-08-23T13:29:13.868Z,31.33
2022-08-23T13:32:03.413Z,31.44
2022-08-23T13:34:47.160Z,31.59
2022-08-23T13:37:22.602Z,31.70
2022-08-23T13:39:55.596Z,31.69
2022-08-23T13:42:35.520Z,31.57
2022-08-23T13:45:15.584Z,31.44
2022-08-23T13:47:51.315Z,31.26
2022-08-23T13:50:24.838Z,31.20
2022-08-23T13:55:45.071Z,31.22
2022-08-23T13:58:15.494Z,31.35
2022-08-23T14:00:45.878Z,31.53
2022-08-23T14:03:27.409Z,31.74
2022-08-23T14:05:56.099Z,31.92
2022-08-23T14:08:24.599Z,32.11
2022-08-23T14:10:53.829Z,32.26
2022-08-23T14:13:28.708Z,32.43
2022-08-23T14:21:40.118Z,32.43
2022-08-23T14:24:08.651Z,32.28
2022-08-23T14:26:37.130Z,32.16
2022-08-23T14:29:05.791Z,32.10
2022-08-23T14:31:36.144Z,31.89
2022-08-23T14:34:06.239Z,31.73
2022-08-23T14:36:34.630Z,31.65
2022-08-23T14:39:03.045Z,31.57
2022-08-23T14:41:32.052Z,31.52
2022-08-23T14:44:00.736Z,31.41
2022-08-23T14:46:29.188Z,31.28
2022-08-23T14:48:57.649Z,31.14
2022-08-23T14:51:32.175Z,31.21
2022-08-23T14:54:03.740Z,31.36
2022-08-23T14:56:32.468Z,31.64
2022-08-23T14:59:01.121Z,31.90
2022-08-23T15:01:29.760Z,32.12
2022-08-23T15:03:58.219Z,32.31
2022-08-23T15:06:28.344Z,32.47
2022-08-23T15:08:56.970Z,32.60
2022-08-23T15:14:13.815Z,32.71
2022-08-23T15:16:42.335Z,32.69
2022-08-23T15:19:10.934Z,32.75
2022-08-23T15:21:40.680Z,32.77
2022-08-23T15:24:09.164Z,32.87
2022-08-23T15:26:37.672Z,32.99
2022-08-23T15:29:06.260Z,33.16
2022-08-23T15:31:34.659Z,33.30
2022-08-23T15:34:03.025Z,33.30
2022-08-23T15:36:43.405Z,33.35
2022-08-23T15:39:11.756Z,33.38
2022-08-23T15:41:41.358Z,33.44
2022-08-23T15:44:09.802Z,33.53
2022-08-23T15:46:38.646Z,33.56
2022-08-23T15:49:13.863Z,33.63
2022-08-23T15:51:44.706Z,33.66
2022-08-23T15:54:13.224Z,33.68
2022-08-23T15:56:45.585Z,33.78
2022-08-23T15:59:15.656Z,33.88
2022-08-23T16:01:44.501Z,33.85
2022-08-23T16:04:13.201Z,33.94
2022-08-23T16:06:45.091Z,34.00
2022-08-23T16:09:20.171Z,33.96
2022-08-23T16:11:49.218Z,33.99
2022-08-23T16:14:17.746Z,34.01
2022-08-23T16:16:46.925Z,33.99
2022-08-23T16:19:16.798Z,34.05
2022-08-23T16:21:46.710Z,34.08
2022-08-23T16:24:15.166Z,34.15
2022-08-23T16:26:46.133Z,34.22
2022-08-23T16:29:17.152Z,34.22
2022-08-23T16:31:46.449Z,34.09
2022-08-23T16:34:16.891Z,34.06
2022-08-23T16:36:57.442Z,34.07
2022-08-23T16:39:26.981Z,34.05
2022-08-23T16:41:55.709Z,34.01
2022-08-23T16:44:24.053Z,33.97
2022-08-23T16:46:52.607Z,33.94
2022-08-23T16:49:21.060Z,33.91
2022-08-23T16:51:52.561Z,33.89
2022-08-23T16:54:21.547Z,33.85
2022-08-23T16:56:49.995Z,33.79
2022-08-23T16:59:19.158Z,33.71
2022-08-23T17:01:50.582Z,33.57
2022-08-23T17:04:20.674Z,33.37
2022-08-23T17:06:50.627Z,33.21
2022-08-23T17:09:18.974Z,33.01
2022-08-23T17:11:48.065Z,32.79
2022-08-23T17:14:16.635Z,32.64
2022-08-23T17:16:45.090Z,32.47
2022-08-23T17:19:14.505Z,32.22
2022-08-23T17:21:45.047Z,32.00
2022-08-23T17:24:14.808Z,31.79
2022-08-23T17:26:43.686Z,31.63
2022-08-23T17:29:12.459Z,31.47
2022-08-23T17:31:41.631Z,31.22
2022-08-23T17:34:10.242Z,31.08
2022-08-23T17:36:47.599Z,31.01
2022-08-23T17:39:20.911Z,30.90
2022-08-23T17:41:49.401Z,30.80
2022-08-23T17:44:18.359Z,30.69
2022-08-23T17:46:47.714Z,30.61
2022-08-23T17:49:18.199Z,30.50
2022-08-23T17:51:46.859Z,30.41
2022-08-23T17:54:15.875Z,30.29
2022-08-23T17:56:50.321Z,30.18
2022-08-23T17:59:19.986Z,30.06
2022-08-23T18:01:48.484Z,29.95
2022-08-23T18:04:16.953Z,29.82
2022-08-23T18:06:46.166Z,29.71
2022-08-23T18:09:14.742Z,29.59
2022-08-23T18:11:43.220Z,29.47
2022-08-23T18:14:13.116Z,29.38
2022-08-23T18:16:44.046Z,29.28
2022-08-23T18:19:14.289Z,29.16
2022-08-23T18:21:44.216Z,29.03
2022-08-23T18:24:12.602Z,28.92
2022-08-23T18:26:58.830Z,28.81
2022-08-23T18:29:28.864Z,28.70
2022-08-23T18:31:57.345Z,28.63
2022-08-23T18:34:25.774Z,28.56
2022-08-23T18:36:54.643Z,28.48
2022-08-23T18:39:31.140Z,28.41
2022-08-23T18:42:01.030Z,28.33
2022-08-23T18:44:31.285Z,28.27
2022-08-23T18:47:03.161Z,28.17
2022-08-23T18:49:33.514Z,28.07
2022-08-23T18:52:02.763Z,27.94
2022-08-23T18:54:33.863Z,27.83
2022-08-23T18:57:03.510Z,27.74
2022-08-23T18:59:33.649Z,27.64
2022-08-23T19:02:02.238Z,27.57
2022-08-23T19:04:31.262Z,27.51
2022-08-23T19:06:59.677Z,27.45
2022-08-23T19:09:28.087Z,27.37
2022-08-23T19:11:56.565Z,27.27
2022-08-23T19:14:24.922Z,27.17
2022-08-23T19:16:55.744Z,27.07
2022-08-23T19:19:24.547Z,26.99
2022-08-23T19:21:52.894Z,26.89
2022-08-23T19:24:21.303Z,26.80
2022-08-23T19:26:49.702Z,26.71
2022-08-23T19:29:20.538Z,26.58
2022-08-23T19:31:50.251Z,26.49
2022-08-23T19:34:22.182Z,26.41
2022-08-23T19:37:00.265Z,26.35
2022-08-23T19:39:29.990Z,26.28
2022-08-23T19:41:58.423Z,26.23
2022-08-23T19:44:28.122Z,26.14
2022-08-23T19:46:56.774Z,26.04
2022-08-23T19:49:26.564Z,25.97
2022-08-23T19:51:55.038Z,25.89
2022-08-23T19:54:23.503Z,25.83
2022-08-23T19:56:57.510Z,25.75
2022-08-23T19:59:28.279Z,25.67
2022-08-23T20:01:57.918Z,25.63
2022-08-23T20:04:29.658Z,25.55
2022-08-23T20:06:59.135Z,25.51
2022-08-23T20:09:30.067Z,25.45
2022-08-23T20:11:59.522Z,25.39
2022-08-23T20:14:33.892Z,25.35
2022-08-23T20:17:04.367Z,25.31
2022-08-23T20:19:35.119Z,25.27
2022-08-23T20:22:17.624Z,25.23
2022-08-23T20:24:52.441Z,25.18
2022-08-23T20:27:24.204Z,25.14
2022-08-23T20:30:01.265Z,25.11
2022-08-23T20:32:31.217Z,25.06
2022-08-23T20:35:01.099Z,25.02
2022-08-23T20:37:30.472Z,24.98
2022-08-23T20:39:59.229Z,24.93
2022-08-23T20:42:27.793Z,24.88
2022-08-23T20:44:56.243Z,24.81
2022-08-23T20:47:24.719Z,24.75
2022-08-23T20:49:53.138Z,24.71
2022-08-23T20:52:22.869Z,24.67
2022-08-23T20:54:52.116Z,24.62
2022-08-23T20:57:20.714Z,24.57
2022-08-23T20:59:49.094Z,24.52
2022-08-23T21:02:17.534Z,24.49
2022-08-23T21:04:45.999Z,24.46
2022-08-23T21:07:16.222Z,24.40
2022-08-23T21:09:46.384Z,24.37
2022-08-23T21:12:14.718Z,24.33
2022-08-23T21:14:43.130Z,24.30
2022-08-23T21:17:11.522Z,24.28
2022-08-23T21:19:39.991Z,24.21
2022-08-23T21:22:08.387Z,24.18
2022-08-23T21:24:38.066Z,24.15
2022-08-23T21:27:09.546Z,24.10
2022-08-23T21:29:38.605Z,24.06
2022-08-23T21:32:07.546Z,24.03
2022-08-23T21:34:35.998Z,23.98
2022-08-23T21:37:04.460Z,23.94
2022-08-23T21:39:32.982Z,23.89
2022-08-23T21:42:01.381Z,23.85
2022-08-23T21:44:31.163Z,23.83
2022-08-23T21:46:59.556Z,23.79
2022-08-23T21:49:27.932Z,23.75
2022-08-23T21:51:56.398Z,23.70
2022-08-23T21:54:24.765Z,23.64
2022-08-23T21:56:53.126Z,23.59
2022-08-23T21:59:21.491Z,23.55
2022-08-23T22:01:51.762Z,23.48
2022-08-23T22:04:20.176Z,23.42
2022-08-23T22:06:48.732Z,23.36
2022-08-23T22:09:20.634Z,23.30
2022-08-23T22:11:55.820Z,23.23
2022-08-23T22:14:31.617Z,23.17
2022-08-23T22:17:01.590Z,23.13
2022-08-23T22:19:30.116Z,23.08
2022-08-23T22:21:59.229Z,23.04
2022-08-23T22:24:27.724Z,22.98
2022-08-23T22:26:56.805Z,22.94
2022-08-23T22:29:25.442Z,22.89
2022-08-23T22:31:53.787Z,22.86
2022-08-23T22:34:23.483Z,22.82
2022-08-23T22:36:52.290Z,22.76
2022-08-23T22:39:21.907Z,22.72
2022-08-23T22:41:50.615Z,22.67
2022-08-23T22:44:19.483Z,22.63
2022-08-23T22:46:48.260Z,22.59
2022-08-23T22:49:17.500Z,22.56
2022-08-23T22:51:49.184Z,22.52
2022-08-23T22:54:24.619Z,22.47
2022-08-23T22:56:54.002Z,22.42
2022-08-23T22:59:27.515Z,22.36
2022-08-23T23:02:03.310Z,22.33
2022-08-23T23:04:32.795Z,22.29
2022-08-23T23:07:03.211Z,22.24
2022-08-23T23:09:32.117Z,22.21
2022-08-23T23:12:00.851Z,22.17
2022-08-23T23:14:29.658Z,22.12
2022-08-23T23:16:58.947Z,22.09
2022-08-23T23:19:45.713Z,22.04
2022-08-23T23:22:15.769Z,21.99
2022-08-23T23:24:44.121Z,21.93
2022-08-23T23:27:12.833Z,21.90
2022-08-23T23:29:42.093Z,21.87
2022-08-23T23:32:10.889Z,21.85
2022-08-23T23:34:40.069Z,21.83
2022-08-23T23:37:08.799Z,21.79
2022-08-23T23:39:38.506Z,21.75
2022-08-23T23:42:07.227Z,21.72
2022-08-23T23:44:35.585Z,21.70
2022-08-23T23:47:04.172Z,21.66
2022-08-23T23:49:33.615Z,21.61
2022-08-23T23:52:04.790Z,21.58
2022-08-23T23:54:35.579Z,21.55
2022-08-23T23:57:07.867Z,21.50
2022-08-23T23:59:36.858Z,21.48
